sensor_id;sensor_type;location;lat;lon;timestamp;pressure;altitude;pressure_sealevel;temperature;humidity
42511;BME280;28141;51.120;17.114;2023-04-28T00:03:04;102117.73;;;25.21;26.16
42511;BME280;28141;51.120;17.114;2023-04-28T00:06:18;102109.21;;;25.22;26.46
42511;BME280;28141;51.120;17.114;2023-04-28T00:09:57;102116.47;;;25.17;26.18
42511;BME280;28141;51.120;17.114;2023-04-28T00:13:11;102111.78;;;25.17;26.06
42511;BME280;28141;51.120;17.114;2023-04-28T00:16:25;102103.87;;;25.21;25.89
42511;BME280;28141;51.120;17.114;2023-04-28T00:19:39;102104.52;;;25.16;26.33
42511;BME280;28141;51.120;17.114;2023-04-28T00:23:17;102108.75;;;25.12;26.19
42511;BME280;28141;51.120;17.114;2023-04-28T00:26:31;102100.03;;;25.15;26.27
42511;BME280;28141;51.120;17.114;2023-04-28T00:29:45;102091.06;;;25.13;26.19
42511;BME280;28141;51.120;17.114;2023-04-28T00:32:59;102100.69;;;25.17;26.66
42511;BME280;28141;51.120;17.114;2023-04-28T00:36:39;102102.15;;;25.13;26.29
42511;BME280;28141;51.120;17.114;2023-04-28T00:39:57;102094.04;;;25.12;26.31
42511;BME280;28141;51.120;17.114;2023-04-28T00:43:10;102084.45;;;25.07;26.29
42511;BME280;28141;51.120;17.114;2023-04-28T00:46:29;102086.57;;;25.05;26.44
42511;BME280;28141;51.120;17.114;2023-04-28T00:50:12;102089.14;;;25.07;26.41
42511;BME280;28141;51.120;17.114;2023-04-28T00:53:26;102088.29;;;25.06;26.10
42511;BME280;28141;51.120;17.114;2023-04-28T00:56:40;102083.59;;;25.07;26.29
42511;BME280;28141;51.120;17.114;2023-04-28T00:59:54;102078.46;;;25.04;26.81
42511;BME280;28141;51.120;17.114;2023-04-28T01:03:37;102082.95;;;25.05;26.49
42511;BME280;28141;51.120;17.114;2023-04-28T01:06:52;102073.36;;;25.07;26.64
42511;BME280;28141;51.120;17.114;2023-04-28T01:10:09;102065.66;;;25.09;26.62
42511;BME280;28141;51.120;17.114;2023-04-28T01:13:23;102073.77;;;25.11;26.43
42511;BME280;28141;51.120;17.114;2023-04-28T01:17:02;102071.45;;;25.08;26.47
42511;BME280;28141;51.120;17.114;2023-04-28T01:20:16;102072.71;;;25.12;26.46
42511;BME280;28141;51.120;17.114;2023-04-28T01:23:30;102069.73;;;25.07;26.36
42511;BME280;28141;51.120;17.114;2023-04-28T01:26:44;102070.14;;;25.04;26.47
42511;BME280;28141;51.120;17.114;2023-04-28T01:30:23;102066.93;;;25.00;26.53
42511;BME280;28141;51.120;17.114;2023-04-28T01:33:37;102057.55;;;25.01;26.50
42511;BME280;28141;51.120;17.114;2023-04-28T01:36:52;102056.70;;;25.01;26.67
42511;BME280;28141;51.120;17.114;2023-04-28T01:40:07;102056.73;;;25.07;26.62
42511;BME280;28141;51.120;17.114;2023-04-28T01:43:45;102052.86;;;25.02;26.57
42511;BME280;28141;51.120;17.114;2023-04-28T01:46:59;102049.02;;;25.03;26.64
42511;BME280;28141;51.120;17.114;2023-04-28T01:50:13;102042.42;;;25.04;26.59
42511;BME280;28141;51.120;17.114;2023-04-28T01:53:26;102044.34;;;25.03;26.80
42511;BME280;28141;51.120;17.114;2023-04-28T01:57:05;102047.31;;;25.02;26.61
42511;BME280;28141;51.120;17.114;2023-04-28T02:00:19;102047.31;;;25.02;26.45
42511;BME280;28141;51.120;17.114;2023-04-28T02:03:33;102050.30;;;25.00;26.51
42511;BME280;28141;51.120;17.114;2023-04-28T02:06:47;102048.17;;;25.02;26.77
42511;BME280;28141;51.120;17.114;2023-04-28T02:10:25;102044.75;;;25.00;26.67
42511;BME280;28141;51.120;17.114;2023-04-28T02:13:39;102039.41;;;24.99;26.83
42511;BME280;28141;51.120;17.114;2023-04-28T02:16:53;102035.58;;;25.00;26.65
42511;BME280;28141;51.120;17.114;2023-04-28T02:20:09;102042.83;;;25.01;26.89
42511;BME280;28141;51.120;17.114;2023-04-28T02:23:47;102040.50;;;24.98;26.70
42511;BME280;28141;51.120;17.114;2023-04-28T02:27:03;102013.36;;;24.87;26.78
42511;BME280;28141;51.120;17.114;2023-04-28T02:30:18;102033.66;;;25.00;26.69
42511;BME280;28141;51.120;17.114;2023-04-28T02:33:32;102040.91;;;25.01;26.56
42511;BME280;28141;51.120;17.114;2023-04-28T02:37:14;102046.05;;;24.98;26.75
42511;BME280;28141;51.120;17.114;2023-04-28T02:40:28;102036.64;;;24.99;26.61
42511;BME280;28141;51.120;17.114;2023-04-28T02:43:42;102031.54;;;24.96;26.76
42511;BME280;28141;51.120;17.114;2023-04-28T02:46:56;102031.54;;;24.96;26.90
42511;BME280;28141;51.120;17.114;2023-04-28T02:50:35;102025.99;;;24.96;26.79
42511;BME280;28141;51.120;17.114;2023-04-28T02:53:49;102020.00;;;24.99;26.67
42511;BME280;28141;51.120;17.114;2023-04-28T02:57:03;102016.83;;;24.95;26.79
42511;BME280;28141;51.120;17.114;2023-04-28T03:00:17;102013.19;;;24.95;26.99
42511;BME280;28141;51.120;17.114;2023-04-28T03:03:56;102017.88;;;24.94;26.81
42511;BME280;28141;51.120;17.114;2023-04-28T03:07:10;102020.00;;;24.92;26.73
42511;BME280;28141;51.120;17.114;2023-04-28T03:10:25;102013.57;;;24.92;26.67
42511;BME280;28141;51.120;17.114;2023-04-28T03:13:38;102019.52;;;24.89;26.75
42511;BME280;28141;51.120;17.114;2023-04-28T03:17:17;102024.22;;;24.88;26.93
42511;BME280;28141;51.120;17.114;2023-04-28T03:20:30;102020.18;;;24.91;27.08
42511;BME280;28141;51.120;17.114;2023-04-28T03:23:44;102015.28;;;24.86;27.13
42511;BME280;28141;51.120;17.114;2023-04-28T03:26:58;102012.92;;;24.90;26.71
42511;BME280;28141;51.120;17.114;2023-04-28T03:30:39;102012.92;;;24.90;26.95
42511;BME280;28141;51.120;17.114;2023-04-28T03:33:53;102017.67;;;24.96;27.05
42511;BME280;28141;51.120;17.114;2023-04-28T03:37:07;102015.11;;;24.94;27.04
42511;BME280;28141;51.120;17.114;2023-04-28T03:40:21;102018.09;;;24.99;26.87
42511;BME280;28141;51.120;17.114;2023-04-28T03:44:00;102020.24;;;24.97;26.93
42511;BME280;28141;51.120;17.114;2023-04-28T03:47:14;102022.57;;;24.94;27.13
42511;BME280;28141;51.120;17.114;2023-04-28T03:50:28;102024.66;;;24.92;26.76
42511;BME280;28141;51.120;17.114;2023-04-28T03:53:41;102027.26;;;25.00;27.18
42511;BME280;28141;51.120;17.114;2023-04-28T03:57:20;102024.52;;;25.06;26.92
42511;BME280;28141;51.120;17.114;2023-04-28T04:00:34;102016.41;;;25.12;26.92
42511;BME280;28141;51.120;17.114;2023-04-28T04:03:48;102018.32;;;25.11;26.54
42511;BME280;28141;51.120;17.114;2023-04-28T04:07:02;102017.90;;;25.14;26.84
42511;BME280;28141;51.120;17.114;2023-04-28T04:10:42;102015.78;;;25.16;26.81
42511;BME280;28141;51.120;17.114;2023-04-28T04:13:56;102003.84;;;25.16;27.09
42511;BME280;28141;51.120;17.114;2023-04-28T04:17:09;102011.49;;;25.20;26.77
42511;BME280;28141;51.120;17.114;2023-04-28T04:20:23;102011.73;;;25.25;26.89
42511;BME280;28141;51.120;17.114;2023-04-28T04:24:03;102011.51;;;25.33;26.72
42511;BME280;28141;51.120;17.114;2023-04-28T04:27:17;102014.50;;;25.38;26.64
42511;BME280;28141;51.120;17.114;2023-04-28T04:30:31;102012.38;;;25.40;26.47
42511;BME280;28141;51.120;17.114;2023-04-28T04:33:45;102005.31;;;25.44;26.88
42511;BME280;28141;51.120;17.114;2023-04-28T04:37:25;102014.49;;;25.45;26.50
42511;BME280;28141;51.120;17.114;2023-04-28T04:40:39;102016.64;;;25.50;26.66
42511;BME280;28141;51.120;17.114;2023-04-28T04:43:53;102007.44;;;25.56;26.54
42511;BME280;28141;51.120;17.114;2023-04-28T04:47:08;102014.06;;;25.55;26.55
42511;BME280;28141;51.120;17.114;2023-04-28T04:50:53;102018.54;;;25.56;26.40
42511;BME280;28141;51.120;17.114;2023-04-28T04:54:07;101996.60;;;25.61;26.64
42511;BME280;28141;51.120;17.114;2023-04-28T04:57:20;102000.63;;;25.65;26.63
42511;BME280;28141;51.120;17.114;2023-04-28T05:00:35;102009.36;;;25.75;26.51
42511;BME280;28141;51.120;17.114;2023-04-28T05:03:50;102001.69;;;25.84;26.09
42511;BME280;28141;51.120;17.114;2023-04-28T05:07:36;102013.83;;;25.89;26.07
42511;BME280;28141;51.120;17.114;2023-04-28T05:10:50;102002.30;;;25.92;26.02
42511;BME280;28141;51.120;17.114;2023-04-28T05:14:04;102005.08;;;25.92;26.15
42511;BME280;28141;51.120;17.114;2023-04-28T05:17:18;101996.53;;;25.94;26.13
42511;BME280;28141;51.120;17.114;2023-04-28T05:20:32;102006.33;;;25.96;26.10
42511;BME280;28141;51.120;17.114;2023-04-28T05:24:10;102004.79;;;26.07;26.01
42511;BME280;28141;51.120;17.114;2023-04-28T05:27:24;101999.88;;;26.15;25.99
42511;BME280;28141;51.120;17.114;2023-04-28T05:30:38;102000.05;;;26.21;25.98
42511;BME280;28141;51.120;17.114;2023-04-28T05:33:52;101999.63;;;26.30;25.92
42511;BME280;28141;51.120;17.114;2023-04-28T05:37:31;102001.92;;;26.40;25.73
42511;BME280;28141;51.120;17.114;2023-04-28T05:40:45;101992.29;;;26.49;25.45
42511;BME280;28141;51.120;17.114;2023-04-28T05:43:58;101994.60;;;26.52;25.82
42511;BME280;28141;51.120;17.114;2023-04-28T05:47:13;101999.07;;;26.60;25.43
42511;BME280;28141;51.120;17.114;2023-04-28T05:50:51;101995.83;;;26.63;25.48
42511;BME280;28141;51.120;17.114;2023-04-28T05:54:05;101988.54;;;26.68;25.38
42511;BME280;28141;51.120;17.114;2023-04-28T05:57:19;101985.07;;;26.73;25.41
42511;BME280;28141;51.120;17.114;2023-04-28T06:00:33;101977.78;;;26.78;25.50
42511;BME280;28141;51.120;17.114;2023-04-28T06:04:13;101979.02;;;26.82;25.32
42511;BME280;28141;51.120;17.114;2023-04-28T06:07:27;101985.62;;;26.88;25.58
42511;BME280;28141;51.120;17.114;2023-04-28T06:10:41;101976.18;;;26.96;25.31
42511;BME280;28141;51.120;17.114;2023-04-28T06:13:54;101977.45;;;27.00;25.37
42511;BME280;28141;51.120;17.114;2023-04-28T06:17:33;101977.38;;;27.06;25.70
42511;BME280;28141;51.120;17.114;2023-04-28T06:20:48;101977.95;;;27.15;25.64
42511;BME280;28141;51.120;17.114;2023-04-28T06:24:02;101979.21;;;27.19;26.05
42511;BME280;28141;51.120;17.114;2023-04-28T06:27:16;101961.15;;;27.28;25.84
42511;BME280;28141;51.120;17.114;2023-04-28T06:30:56;101972.92;;;27.30;25.75
42511;BME280;28141;51.120;17.114;2023-04-28T06:34:12;101966.60;;;27.41;25.47
42511;BME280;28141;51.120;17.114;2023-04-28T06:37:26;101963.52;;;27.49;26.08
42511;BME280;28141;51.120;17.114;2023-04-28T06:40:40;101968.84;;;27.57;25.70
42511;BME280;28141;51.120;17.114;2023-04-28T06:44:18;101963.43;;;27.63;25.73
42511;BME280;28141;51.120;17.114;2023-04-28T06:47:32;101969.31;;;27.73;26.01
42511;BME280;28141;51.120;17.114;2023-04-28T06:50:47;101963.06;;;27.77;26.09
42511;BME280;28141;51.120;17.114;2023-04-28T06:54:01;101965.77;;;27.84;26.14
42511;BME280;28141;51.120;17.114;2023-04-28T06:57:40;101955.38;;;27.91;25.59
42511;BME280;28141;51.120;17.114;2023-04-28T07:00:55;101956.19;;;27.98;24.97
42511;BME280;28141;51.120;17.114;2023-04-28T07:04:08;101948.59;;;28.05;25.49
42511;BME280;28141;51.120;17.114;2023-04-28T07:07:22;101938.30;;;28.06;25.41
42511;BME280;28141;51.120;17.114;2023-04-28T07:11:02;101945.66;;;28.18;25.32
42511;BME280;28141;51.120;17.114;2023-04-28T07:14:16;101946.43;;;28.25;25.84
42511;BME280;28141;51.120;17.114;2023-04-28T07:17:31;101935.67;;;28.29;24.79
42511;BME280;28141;51.120;17.114;2023-04-28T07:20:45;101925.83;;;28.26;24.95
42511;BME280;28141;51.120;17.114;2023-04-28T07:24:27;101920.42;;;28.31;25.05
42511;BME280;28141;51.120;17.114;2023-04-28T07:27:41;101921.39;;;28.37;24.40
42511;BME280;28141;51.120;17.114;2023-04-28T07:30:55;101917.05;;;28.41;24.44
42511;BME280;28141;51.120;17.114;2023-04-28T07:34:09;101915.64;;;28.50;24.20
42511;BME280;28141;51.120;17.114;2023-04-28T07:37:50;101916.87;;;28.54;24.67
42511;BME280;28141;51.120;17.114;2023-04-28T07:41:05;101911.65;;;28.58;24.63
42511;BME280;28141;51.120;17.114;2023-04-28T07:44:19;101909.13;;;28.68;24.05
42511;BME280;28141;51.120;17.114;2023-04-28T07:47:33;101905.26;;;28.69;24.70
42511;BME280;28141;51.120;17.114;2023-04-28T07:51:14;101903.47;;;28.75;24.37
42511;BME280;28141;51.120;17.114;2023-04-28T07:54:29;101892.09;;;28.76;24.44
42511;BME280;28141;51.120;17.114;2023-04-28T07:57:43;101897.19;;;28.79;24.09
42511;BME280;28141;51.120;17.114;2023-04-28T08:00:57;101893.08;;;28.82;23.99
42511;BME280;28141;51.120;17.114;2023-04-28T08:04:37;101893.70;;;28.84;24.16
42511;BME280;28141;51.120;17.114;2023-04-28T08:07:51;101889.82;;;28.85;24.47
42511;BME280;28141;51.120;17.114;2023-04-28T08:11:06;101893.23;;;28.87;24.09
42511;BME280;28141;51.120;17.114;2023-04-28T08:14:21;101895.27;;;28.91;24.10
42511;BME280;28141;51.120;17.114;2023-04-28T08:18:02;101891.64;;;29.02;23.97
42511;BME280;28141;51.120;17.114;2023-04-28T08:21:16;101887.05;;;29.08;23.61
42511;BME280;28141;51.120;17.114;2023-04-28T08:24:30;101885.46;;;29.12;23.73
42511;BME280;28141;51.120;17.114;2023-04-28T08:27:46;101878.93;;;29.18;23.67
42511;BME280;28141;51.120;17.114;2023-04-28T08:31:27;101876.75;;;29.20;23.49
42511;BME280;28141;51.120;17.114;2023-04-28T08:34:41;101863.75;;;29.26;23.31
42511;BME280;28141;51.120;17.114;2023-04-28T08:37:55;101872.26;;;29.31;23.20
42511;BME280;28141;51.120;17.114;2023-04-28T08:41:11;101858.03;;;29.32;23.17
42511;BME280;28141;51.120;17.114;2023-04-28T08:44:55;101851.97;;;29.35;23.02
42511;BME280;28141;51.120;17.114;2023-04-28T08:48:19;101850.67;;;29.38;23.14
42511;BME280;28141;51.120;17.114;2023-04-28T08:51:34;101848.98;;;29.37;22.57
42511;BME280;28141;51.120;17.114;2023-04-28T08:55:17;101857.44;;;29.42;22.84
42511;BME280;28141;51.120;17.114;2023-04-28T08:58:34;101856.10;;;29.45;22.59
42511;BME280;28141;51.120;17.114;2023-04-28T09:01:50;101841.55;;;29.43;22.42
42511;BME280;28141;51.120;17.114;2023-04-28T09:05:07;101837.18;;;29.47;23.01
42511;BME280;28141;51.120;17.114;2023-04-28T09:08:47;101842.62;;;29.53;22.69
42511;BME280;28141;51.120;17.114;2023-04-28T09:12:02;101833.52;;;29.58;22.94
42511;BME280;28141;51.120;17.114;2023-04-28T09:19:09;101837.16;;;29.58;22.56
42511;BME280;28141;51.120;17.114;2023-04-28T09:22:27;101822.56;;;29.68;22.58
42511;BME280;28141;51.120;17.114;2023-04-28T09:29:33;101818.43;;;29.70;22.34
42511;BME280;28141;51.120;17.114;2023-04-28T09:36:11;101797.19;;;29.69;22.06
42511;BME280;28141;51.120;17.114;2023-04-28T09:39:32;101793.90;;;29.72;22.30
42511;BME280;28141;51.120;17.114;2023-04-28T09:46:38;101792.69;;;29.68;22.32
42511;BME280;28141;51.120;17.114;2023-04-28T09:49:56;101782.21;;;29.75;22.09
42511;BME280;28141;51.120;17.114;2023-04-28T09:53:39;101787.91;;;29.81;22.17
42511;BME280;28141;51.120;17.114;2023-04-28T09:56:54;101777.59;;;29.81;21.90
42511;BME280;28141;51.120;17.114;2023-04-28T10:00:09;101772.09;;;29.86;22.07
42511;BME280;28141;51.120;17.114;2023-04-28T10:03:27;101773.53;;;29.89;22.05
42511;BME280;28141;51.120;17.114;2023-04-28T10:06:42;101769.16;;;29.93;21.76
42511;BME280;28141;51.120;17.114;2023-04-28T10:09:57;101757.13;;;29.92;22.18
42511;BME280;28141;51.120;17.114;2023-04-28T10:13:41;101757.52;;;29.96;22.26
42511;BME280;28141;51.120;17.114;2023-04-28T10:16:58;101747.52;;;30.00;22.68
42511;BME280;28141;51.120;17.114;2023-04-28T10:21:40;101743.45;;;30.07;22.29
42511;BME280;28141;51.120;17.114;2023-04-28T10:28:25;101736.88;;;30.13;22.14
42511;BME280;28141;51.120;17.114;2023-04-28T10:35:42;101718.77;;;30.16;22.22
42511;BME280;28141;51.120;17.114;2023-04-28T10:42:54;101714.34;;;30.20;22.04
42511;BME280;28141;51.120;17.114;2023-04-28T10:46:09;101708.16;;;30.35;21.54
42511;BME280;28141;51.120;17.114;2023-04-28T10:52:49;101694.00;;;30.41;21.14
42511;BME280;28141;51.120;17.114;2023-04-28T10:56:29;101676.63;;;30.39;21.68
42511;BME280;28141;51.120;17.114;2023-04-28T10:59:43;101693.68;;;30.55;20.78
42511;BME280;28141;51.120;17.114;2023-04-28T11:02:58;101698.78;;;30.58;21.98
42511;BME280;28141;51.120;17.114;2023-04-28T11:10:07;101690.70;;;30.61;21.81
42511;BME280;28141;51.120;17.114;2023-04-28T11:13:26;101675.20;;;30.70;22.26
42511;BME280;28141;51.120;17.114;2023-04-28T11:16:49;101676.69;;;30.78;21.48
42511;BME280;28141;51.120;17.114;2023-04-28T11:20:29;101678.52;;;30.89;21.91
42511;BME280;28141;51.120;17.114;2023-04-28T11:23:44;101663.90;;;31.04;21.97
42511;BME280;28141;51.120;17.114;2023-04-28T11:26:59;101660.20;;;31.20;21.94
42511;BME280;28141;51.120;17.114;2023-04-28T11:30:21;101669.63;;;31.36;21.67
42511;BME280;28141;51.120;17.114;2023-04-28T11:34:09;101658.84;;;31.49;21.66
42511;BME280;28141;51.120;17.114;2023-04-28T11:37:30;101653.57;;;31.53;21.82
42511;BME280;28141;51.120;17.114;2023-04-28T11:44:35;101642.56;;;31.68;21.48
42511;BME280;28141;51.120;17.114;2023-04-28T11:47:49;101632.21;;;31.69;21.32
42511;BME280;28141;51.120;17.114;2023-04-28T11:51:03;101632.50;;;31.72;21.67
42511;BME280;28141;51.120;17.114;2023-04-28T11:54:24;101632.12;;;31.90;21.74
42511;BME280;28141;51.120;17.114;2023-04-28T12:01:31;101619.85;;;32.02;21.06
42511;BME280;28141;51.120;17.114;2023-04-28T12:04:46;101618.29;;;32.16;21.34
42511;BME280;28141;51.120;17.114;2023-04-28T12:08:29;101632.46;;;32.31;20.75
42511;BME280;28141;51.120;17.114;2023-04-28T12:15:10;101612.85;;;32.36;21.04
42511;BME280;28141;51.120;17.114;2023-04-28T12:18:58;101620.83;;;32.54;20.63
42511;BME280;28141;51.120;17.114;2023-04-28T12:22:15;101616.39;;;32.63;20.32
42511;BME280;28141;51.120;17.114;2023-04-28T12:25:30;101603.02;;;32.76;19.83
42511;BME280;28141;51.120;17.114;2023-04-28T12:28:43;101605.02;;;32.90;19.88
42511;BME280;28141;51.120;17.114;2023-04-28T12:35:50;101600.30;;;33.01;20.34
42511;BME280;28141;51.120;17.114;2023-04-28T12:39:04;101600.32;;;33.11;20.72
42511;BME280;28141;51.120;17.114;2023-04-28T12:42:47;101591.92;;;33.21;20.05
42511;BME280;28141;51.120;17.114;2023-04-28T12:46:02;101593.66;;;33.32;19.57
42511;BME280;28141;51.120;17.114;2023-04-28T12:49:17;101588.36;;;33.41;19.52
42511;BME280;28141;51.120;17.114;2023-04-28T12:52:31;101588.06;;;33.43;19.58
42511;BME280;28141;51.120;17.114;2023-04-28T12:56:16;101583.29;;;33.43;19.60
42511;BME280;28141;51.120;17.114;2023-04-28T12:59:30;101574.04;;;33.48;19.77
42511;BME280;28141;51.120;17.114;2023-04-28T13:02:45;101558.59;;;33.60;19.57
42511;BME280;28141;51.120;17.114;2023-04-28T13:05:59;101550.99;;;33.66;19.29
42511;BME280;28141;51.120;17.114;2023-04-28T13:09:39;101562.81;;;33.73;19.41
42511;BME280;28141;51.120;17.114;2023-04-28T13:12:55;101566.77;;;33.82;19.42
42511;BME280;28141;51.120;17.114;2023-04-28T13:16:09;101549.90;;;33.92;19.42
42511;BME280;28141;51.120;17.114;2023-04-28T13:19:26;101547.34;;;34.01;19.50
42511;BME280;28141;51.120;17.114;2023-04-28T13:23:08;101554.37;;;34.14;19.22
42511;BME280;28141;51.120;17.114;2023-04-28T13:26:22;101548.14;;;34.22;19.15
42511;BME280;28141;51.120;17.114;2023-04-28T13:29:39;101550.39;;;34.30;18.95
42511;BME280;28141;51.120;17.114;2023-04-28T13:32:53;101543.92;;;34.39;18.84
42511;BME280;28141;51.120;17.114;2023-04-28T13:36:34;101533.47;;;34.50;18.97
42511;BME280;28141;51.120;17.114;2023-04-28T13:39:49;101522.74;;;34.57;18.97
42511;BME280;28141;51.120;17.114;2023-04-28T13:43:03;101529.45;;;34.66;18.39
42511;BME280;28141;51.120;17.114;2023-04-28T13:46:19;101522.38;;;34.79;18.58
42511;BME280;28141;51.120;17.114;2023-04-28T13:49:59;101519.18;;;34.96;18.78
42511;BME280;28141;51.120;17.114;2023-04-28T13:53:14;101513.79;;;35.04;19.03
42511;BME280;28141;51.120;17.114;2023-04-28T13:56:29;101512.03;;;35.13;18.66
42511;BME280;28141;51.120;17.114;2023-04-28T13:59:44;101509.67;;;35.31;18.55
42511;BME280;28141;51.120;17.114;2023-04-28T14:03:25;101509.32;;;35.37;18.55
42511;BME280;28141;51.120;17.114;2023-04-28T14:06:39;101504.99;;;35.50;18.18
42511;BME280;28141;51.120;17.114;2023-04-28T14:09:54;101502.91;;;35.61;18.18
42511;BME280;28141;51.120;17.114;2023-04-28T14:13:08;101509.67;;;35.65;18.14
42511;BME280;28141;51.120;17.114;2023-04-28T14:16:49;101498.33;;;35.75;18.08
42511;BME280;28141;51.120;17.114;2023-04-28T14:20:04;101490.30;;;35.87;17.97
42511;BME280;28141;51.120;17.114;2023-04-28T14:23:19;101485.73;;;35.91;17.68
42511;BME280;28141;51.120;17.114;2023-04-28T14:26:33;101479.51;;;35.94;17.71
42511;BME280;28141;51.120;17.114;2023-04-28T14:30:14;101480.52;;;36.03;17.77
42511;BME280;28141;51.120;17.114;2023-04-28T14:33:28;101481.58;;;36.12;17.84
42511;BME280;28141;51.120;17.114;2023-04-28T14:36:42;101476.52;;;36.09;17.48
42511;BME280;28141;51.120;17.114;2023-04-28T14:39:56;101475.43;;;36.05;17.81
42511;BME280;28141;51.120;17.114;2023-04-28T14:43:36;101476.86;;;36.03;17.56
42511;BME280;28141;51.120;17.114;2023-04-28T14:46:50;101478.66;;;35.94;17.67
42511;BME280;28141;51.120;17.114;2023-04-28T14:50:07;101473.94;;;35.89;17.38
42511;BME280;28141;51.120;17.114;2023-04-28T14:53:21;101472.30;;;35.83;17.98
42511;BME280;28141;51.120;17.114;2023-04-28T14:57:02;101465.88;;;35.77;17.64
42511;BME280;28141;51.120;17.114;2023-04-28T15:00:17;101460.03;;;35.69;17.65
42511;BME280;28141;51.120;17.114;2023-04-28T15:03:31;101461.20;;;35.63;17.61
42511;BME280;28141;51.120;17.114;2023-04-28T15:06:45;101449.15;;;35.57;17.92
42511;BME280;28141;51.120;17.114;2023-04-28T15:10:31;101451.23;;;35.46;17.77
42511;BME280;28141;51.120;17.114;2023-04-28T15:13:50;101435.49;;;35.40;17.55
42511;BME280;28141;51.120;17.114;2023-04-28T15:17:07;101436.98;;;35.33;18.07
42511;BME280;28141;51.120;17.114;2023-04-28T15:20:48;101435.32;;;35.27;17.87
42511;BME280;28141;51.120;17.114;2023-04-28T15:24:02;101420.43;;;35.21;17.84
42511;BME280;28141;51.120;17.114;2023-04-28T15:27:16;101424.96;;;35.17;18.34
42511;BME280;28141;51.120;17.114;2023-04-28T15:30:30;101420.25;;;35.07;17.79
42511;BME280;28141;51.120;17.114;2023-04-28T15:34:11;101427.09;;;34.96;18.07
42511;BME280;28141;51.120;17.114;2023-04-28T15:40:53;101415.16;;;34.70;17.93
42511;BME280;28141;51.120;17.114;2023-04-28T15:44:33;101416.89;;;34.61;18.31
42511;BME280;28141;51.120;17.114;2023-04-28T15:47:48;101417.51;;;34.53;18.56
42511;BME280;28141;51.120;17.114;2023-04-28T15:51:08;101413.90;;;34.48;18.41
42511;BME280;28141;51.120;17.114;2023-04-28T15:54:23;101412.23;;;34.41;18.38
42511;BME280;28141;51.120;17.114;2023-04-28T15:58:03;101410.60;;;34.30;18.48
42511;BME280;28141;51.120;17.114;2023-04-28T16:01:17;101401.34;;;34.25;19.05
42511;BME280;28141;51.120;17.114;2023-04-28T16:04:30;101408.69;;;34.16;18.74
42511;BME280;28141;51.120;17.114;2023-04-28T16:07:44;101406.45;;;34.07;18.49
42511;BME280;28141;51.120;17.114;2023-04-28T16:11:25;101400.59;;;34.04;18.66
42511;BME280;28141;51.120;17.114;2023-04-28T16:14:39;101395.86;;;33.94;18.67
42511;BME280;28141;51.120;17.114;2023-04-28T16:17:53;101402.35;;;33.85;18.89
42511;BME280;28141;51.120;17.114;2023-04-28T16:21:09;101393.65;;;33.81;18.60
42511;BME280;28141;51.120;17.114;2023-04-28T16:24:50;101404.05;;;33.76;18.85
42511;BME280;28141;51.120;17.114;2023-04-28T16:28:06;101399.26;;;33.71;18.94
42511;BME280;28141;51.120;17.114;2023-04-28T16:31:20;101395.36;;;33.62;18.77
42511;BME280;28141;51.120;17.114;2023-04-28T16:34:34;101391.42;;;33.58;19.04
42511;BME280;28141;51.120;17.114;2023-04-28T16:38:14;101390.02;;;33.55;19.04
42511;BME280;28141;51.120;17.114;2023-04-28T16:41:29;101382.46;;;33.51;19.24
42511;BME280;28141;51.120;17.114;2023-04-28T16:44:43;101377.40;;;33.43;19.19
42511;BME280;28141;51.120;17.114;2023-04-28T16:47:57;101382.76;;;33.39;19.31
42511;BME280;28141;51.120;17.114;2023-04-28T16:51:37;101381.91;;;33.33;19.20
42511;BME280;28141;51.120;17.114;2023-04-28T16:54:51;101373.48;;;33.33;19.30
42511;BME280;28141;51.120;17.114;2023-04-28T16:58:05;101378.55;;;33.26;19.64
42511;BME280;28141;51.120;17.114;2023-04-28T17:01:20;101387.54;;;33.23;19.41
42511;BME280;28141;51.120;17.114;2023-04-28T17:04:59;101381.07;;;33.18;19.40
42511;BME280;28141;51.120;17.114;2023-04-28T17:08:13;101374.32;;;33.14;19.64
42511;BME280;28141;51.120;17.114;2023-04-28T17:11:28;101383.61;;;33.09;19.60
42511;BME280;28141;51.120;17.114;2023-04-28T17:14:41;101380.22;;;33.02;19.95
42511;BME280;28141;51.120;17.114;2023-04-28T17:18:25;101382.75;;;32.93;19.54
42511;BME280;28141;51.120;17.114;2023-04-28T17:21:39;101370.97;;;32.91;19.86
42511;BME280;28141;51.120;17.114;2023-04-28T17:24:53;101383.59;;;32.84;19.78
42511;BME280;28141;51.120;17.114;2023-04-28T17:28:07;101374.04;;;32.80;20.25
42511;BME280;28141;51.120;17.114;2023-04-28T17:31:47;101376.55;;;32.71;19.72
42511;BME280;28141;51.120;17.114;2023-04-28T17:35:01;101367.56;;;32.64;20.02
42511;BME280;28141;51.120;17.114;2023-04-28T17:38:15;101361.34;;;32.57;19.12
42511;BME280;28141;51.120;17.114;2023-04-28T17:41:30;101363.87;;;32.48;20.11
42511;BME280;28141;51.120;17.114;2023-04-28T17:45:10;101368.34;;;32.39;19.95
42511;BME280;28141;51.120;17.114;2023-04-28T17:48:24;101366.09;;;32.31;20.08
42511;BME280;28141;51.120;17.114;2023-04-28T17:51:38;101357.07;;;32.19;20.19
42511;BME280;28141;51.120;17.114;2023-04-28T17:54:52;101364.58;;;32.08;20.01
42511;BME280;28141;51.120;17.114;2023-04-28T17:58:33;101367.03;;;31.95;20.27
42511;BME280;28141;51.120;17.114;2023-04-28T18:01:49;101363.05;;;31.80;20.32
42511;BME280;28141;51.120;17.114;2023-04-28T18:05:03;101366.37;;;31.67;20.38
42511;BME280;28141;51.120;17.114;2023-04-28T18:08:19;101366.81;;;31.59;20.52
42511;BME280;28141;51.120;17.114;2023-04-28T18:11:59;101364.46;;;31.36;20.68